Time;durP1;ratioP1;P1;durP2;ratioP2;P2;SDS_P1;SDS_P2;PMS_P1;PMS_P2;Temp;Humidity;BMP_temperature;BMP_pressure;BME280_temperature;BME280_humidity;BME280_pressure;Samples;Min_cycle;Max_cycle;Signal;HPM_P1;HPM_P2
2023/06/13 00:00:10;;;;;;;8.63;3.78;;;;;;;;;;5027660;28;20028;-75
2023/06/13 00:02:37;;;;;;;8.32;3.80;;;;;;;;;;5030144;28;20092;-75
2023/06/13 00:05:05;;;;;;;7.45;4.05;;;;;;;;;;5027398;28;20030;-74
2023/06/13 00:07:32;;;;;;;8.38;3.78;;;;;;;;;;5029735;28;20430;-75
2023/06/13 00:09:58;;;;;;;10.35;3.50;;;;;;;;;;5021750;28;20029;-75
2023/06/13 00:12:25;;;;;;;7.75;3.80;;;;;;;;;;5025323;28;20051;-75
2023/06/13 00:14:52;;;;;;;4.78;3.60;;;;;;;;;;5024510;28;20064;-76
2023/06/13 00:17:25;;;;;;;9.88;2.95;;;;;;;;;;5028321;28;20092;-74
2023/06/13 00:19:54;;;;;;;4.78;3.45;;;;;;;;;;5028464;28;20116;-74
2023/06/13 00:22:20;;;;;;;8.23;3.83;;;;;;;;;;5024805;28;20413;-75
2023/06/13 00:24:46;;;;;;;10.73;4.28;;;;;;;;;;5044063;28;20038;-76
2023/06/13 00:27:12;;;;;;;7.63;3.58;;;;;;;;;;5027751;28;20122;-75
2023/06/13 00:29:39;;;;;;;9.48;4.53;;;;;;;;;;5032312;28;20113;-76
2023/06/13 00:32:05;;;;;;;11.20;4.10;;;;;;;;;;5027719;28;20041;-75
2023/06/13 00:34:31;;;;;;;8.68;3.45;;;;;;;;;;5034934;28;20049;-76
2023/06/13 00:36:57;;;;;;;9.65;3.83;;;;;;;;;;5031849;28;20038;-76
2023/06/13 00:39:23;;;;;;;5.05;2.80;;;;;;;;;;5028205;28;20030;-76
2023/06/13 00:41:49;;;;;;;5.40;3.42;;;;;;;;;;5028055;28;20470;-75
2023/06/13 00:44:15;;;;;;;7.30;3.03;;;;;;;;;;5030207;28;20061;-76
2023/06/13 00:46:43;;;;;;;10.18;3.22;;;;;;;;;;5031815;28;20056;-76
2023/06/13 00:49:09;;;;;;;5.38;2.83;;;;;;;;;;5031952;28;20022;-75
2023/06/13 00:51:40;;;;;;;7.80;3.40;;;;;;;;;;5027595;28;20117;-76
2023/06/13 00:54:10;;;;;;;5.05;2.78;;;;;;;;;;5030314;28;20425;-73
2023/06/13 00:56:36;;;;;;;4.70;3.17;;;;;;;;;;5033408;28;20034;-76
2023/06/13 00:59:03;;;;;;;3.53;3.22;;;;;;;;;;5030502;28;20025;-76
2023/06/13 01:01:30;;;;;;;12.95;3.40;;;;;;;;;;5031729;28;20436;-75
2023/06/13 01:03:58;;;;;;;4.03;2.97;;;;;;;;;;5029802;28;20057;-73
2023/06/13 01:06:24;;;;;;;13.93;4.15;;;;;;;;;;5032963;28;20532;-74
2023/06/13 01:08:52;;;;;;;6.40;3.40;;;;;;;;;;5030279;28;20037;-72
2023/06/13 01:11:28;;;;;;;5.95;3.85;;;;;;;;;;5030473;28;20037;-74
2023/06/13 01:14:24;;;;;;;5.78;3.15;;;19.40;99.90;;;;;;5021956;28;20396;-74
2023/06/13 01:16:56;;;;;;;7.53;3.47;;;;;;;;;;4997032;28;20479;-75
2023/06/13 01:19:31;;;;;;;6.15;2.83;;;;;;;;;;5035881;28;20029;-74
2023/06/13 01:21:58;;;;;;;20.27;4.00;;;;;;;;;;5033004;28;20112;-75
2023/06/13 01:24:38;;;;;;;8.40;4.30;;;;;;;;;;5028659;28;20125;-74
2023/06/13 01:27:05;;;;;;;12.82;3.83;;;;;;;;;;5028445;28;20034;-75
2023/06/13 01:29:33;;;;;;;7.47;3.65;;;;;;;;;;5027254;28;20025;-75
2023/06/13 01:31:59;;;;;;;5.05;3.25;;;;;;;;;;5014212;28;20033;-75
2023/06/13 01:34:25;;;;;;;4.85;3.20;;;;;;;;;;5031648;28;20368;-75
2023/06/13 01:36:51;;;;;;;3.83;2.92;;;;;;;;;;5031133;28;20029;-75
2023/06/13 01:39:17;;;;;;;5.43;3.30;;;;;;;;;;5029742;28;20455;-72
2023/06/13 01:41:43;;;;;;;18.08;3.20;;;;;;;;;;5030751;28;20041;-74
2023/06/13 01:44:12;;;;;;;5.15;3.20;;;;;;;;;;5028984;28;20517;-75
2023/06/13 01:46:45;;;;;;;4.95;3.40;;;;;;;;;;5023519;28;20104;-75
2023/06/13 01:49:11;;;;;;;6.28;3.35;;;;;;;;;;5029782;28;20038;-75
2023/06/13 01:51:43;;;;;;;6.30;3.40;;;;;;;;;;5029710;28;20041;-76
2023/06/13 01:54:11;;;;;;;6.50;3.10;;;;;;;;;;5032959;28;20064;-76
2023/06/13 01:56:38;;;;;;;7.82;3.10;;;;;;;;;;5030826;28;20639;-77
2023/06/13 01:59:06;;;;;;;11.00;3.63;;;;;;;;;;5033283;28;20030;-76
2023/06/13 02:01:33;;;;;;;8.10;3.35;;;;;;;;;;5029816;28;20163;-76
2023/06/13 02:04:02;;;;;;;6.38;2.83;;;;;;;;;;5031026;28;20120;-77
2023/06/13 02:06:29;;;;;;;5.50;3.05;;;;;;;;;;5029433;28;20058;-77
2023/06/13 02:08:57;;;;;;;6.90;3.53;;;;;;;;;;5030660;28;20054;-75
2023/06/13 02:11:23;;;;;;;4.88;3.20;;;;;;;;;;5029684;28;20556;-75
2023/06/13 02:13:50;;;;;;;7.03;3.47;;;;;;;;;;5031593;28;20037;-75
2023/06/13 02:16:18;;;;;;;5.25;2.72;;;;;;;;;;5030922;28;20132;-76
2023/06/13 02:18:46;;;;;;;8.57;3.97;;;;;;;;;;5012104;28;20309;-75
2023/06/13 02:21:13;;;;;;;7.80;3.72;;;;;;;;;;5030415;28;20125;-75
2023/06/13 02:23:39;;;;;;;6.70;3.33;;;;;;;;;;5028406;28;20030;-75
2023/06/13 02:26:08;;;;;;;6.20;3.45;;;;;;;;;;5030851;28;20030;-77
2023/06/13 02:28:34;;;;;;;4.15;2.88;;;;;;;;;;5032490;28;20041;-76
2023/06/13 02:31:00;;;;;;;8.93;3.78;;;;;;;;;;5030654;28;20025;-75
2023/06/13 02:33:30;;;;;;;9.23;3.20;;;;;;;;;;5028653;28;20498;-76
2023/06/13 02:35:56;;;;;;;8.02;3.20;;;;;;;;;;5031377;28;20030;-76
2023/06/13 02:38:21;;;;;;;4.68;3.40;;;;;;;;;;5028212;28;20040;-76
2023/06/13 02:40:47;;;;;;;6.22;3.53;;;;;;;;;;5019137;28;20065;-80
2023/06/13 02:43:14;;;;;;;7.93;3.50;;;;;;;;;;5025709;28;20055;-82
2023/06/13 02:45:40;;;;;;;6.15;3.38;;;;;;;;;;5032879;28;20117;-81
2023/06/13 02:48:06;;;;;;;6.75;3.08;;;;;;;;;;5030101;28;20064;-86
2023/06/13 02:50:32;;;;;;;4.70;3.30;;;;;;;;;;5031801;28;20091;-81
2023/06/13 02:52:58;;;;;;;8.50;3.20;;;;;;;;;;5027886;28;20037;-81
2023/06/13 02:55:24;;;;;;;25.17;14.98;;;;;;;;;;5026781;28;20471;-74
2023/06/13 02:57:50;;;;;;;24.25;9.07;;;;;;;;;;5026831;28;20040;-73
2023/06/13 03:00:16;;;;;;;15.52;7.45;;;;;;;;;;5025396;28;20048;-76
2023/06/13 03:02:46;;;;;;;7.05;4.35;;;;;;;;;;5024489;28;20042;-76
2023/06/13 03:05:15;;;;;;;5.97;3.55;;;;;;;;;;5025070;28;20091;-75
2023/06/13 03:07:46;;;;;;;5.63;3.65;;;;;;;;;;5022433;28;20038;-79
2023/06/13 03:10:12;;;;;;;4.97;3.58;;;;;;;;;;5032074;28;20044;-77
2023/06/13 03:12:38;;;;;;;6.47;4.07;;;;;;;;;;5026760;28;20726;-76
2023/06/13 03:15:05;;;;;;;5.47;3.78;;;;;;;;;;5031010;28;20064;-78
2023/06/13 03:17:31;;;;;;;9.80;4.43;;;;;;;;;;5033872;28;20380;-78
2023/06/13 03:19:57;;;;;;;13.70;3.75;;;;;;;;;;5023559;28;20474;-78
2023/06/13 03:22:23;;;;;;;4.38;3.25;;;;;;;;;;5024618;28;20089;-75
2023/06/13 03:24:50;;;;;;;7.25;3.67;;;;;;;;;;5025453;28;20037;-80
2023/06/13 03:27:16;;;;;;;11.90;7.72;;;;;;;;;;5028866;28;20087;-84
2023/06/13 03:29:42;;;;;;;12.27;7.03;;;;;;;;;;5029489;28;20021;-80
2023/06/13 03:32:09;;;;;;;5.65;3.92;;;;;;;;;;5029963;28;20041;-83
2023/06/13 03:34:38;;;;;;;6.55;3.85;;;;;;;;;;5024654;28;20029;-80
2023/06/13 03:37:07;;;;;;;5.53;3.47;;;;;;;;;;5031222;28;20075;-82
2023/06/13 03:39:33;;;;;;;7.28;3.65;;;;;;;;;;5030668;28;20431;-78
2023/06/13 03:42:00;;;;;;;8.80;3.33;;;;;;;;;;5028550;28;20103;-80
2023/06/13 03:44:29;;;;;;;9.00;3.47;;;;;;;;;;5028691;28;20052;-80
2023/06/13 03:46:56;;;;;;;9.18;3.70;;;;;;;;;;5030314;28;20034;-76
2023/06/13 03:49:25;;;;;;;11.25;3.80;;;;;;;;;;5028720;28;20041;-77
2023/06/13 03:51:54;;;;;;;9.65;3.80;;;;;;;;;;5027539;28;20079;-78
2023/06/13 03:54:21;;;;;;;5.95;3.30;;;;;;;;;;5029087;28;20460;-79
2023/06/13 03:56:47;;;;;;;4.93;3.33;;;;;;;;;;5028310;28;20124;-78
2023/06/13 07:15:32;;;;;;;6.07;2.70;;;;;;;;;;4993981;28;21304;-82
2023/06/13 07:17:58;;;;;;;2.75;2.13;;;;;;;;;;5030103;28;20214;-79
2023/06/13 07:20:24;;;;;;;2.53;2.30;;;;;;;;;;5026112;28;20030;-77
2023/06/13 07:22:50;;;;;;;3.30;2.63;;;;;;;;;;5027175;28;20044;-83
2023/06/13 07:25:16;;;;;;;4.63;2.53;;;;;;;;;;5019662;28;20053;-85
2023/06/13 07:27:43;;;;;;;4.78;2.25;;;;;;;;;;5022280;28;20458;-79
2023/06/13 07:30:09;;;;;;;4.50;2.20;;;;;;;;;;5019154;28;20551;-78
2023/06/13 07:32:35;;;;;;;5.35;2.10;;;;;;;;;;5026163;28;20064;-81
2023/06/13 07:35:02;;;;;;;6.63;2.30;;;;;;;;;;5026725;28;20035;-79
2023/06/13 07:37:28;;;;;;;4.40;2.15;;;;;;;;;;5028997;28;20500;-82
2023/06/13 07:39:54;;;;;;;2.85;2.10;;;;;;;;;;5022044;28;20044;-82
2023/06/13 07:42:20;;;;;;;9.73;2.33;;;;;;;;;;5028591;28;20106;-80
2023/06/13 07:44:46;;;;;;;9.48;6.50;;;;;;;;;;5025598;28;20179;-77
2023/06/13 07:47:12;;;;;;;10.32;5.55;;;;;;;;;;5021696;28;20554;-77
2023/06/13 07:49:39;;;;;;;7.00;2.20;;;;;;;;;;5042087;28;20033;-76
2023/06/13 07:52:05;;;;;;;6.05;2.15;;;;;;;;;;5022903;28;20072;-77
2023/06/13 07:54:31;;;;;;;3.45;1.90;;;;;;;;;;5024724;28;20030;-76
2023/06/13 07:56:57;;;;;;;6.20;2.00;;;;;;;;;;5030761;28;20030;-73
2023/06/13 07:59:24;;;;;;;5.18;1.60;;;;;;;;;;5029361;28;20459;-73
2023/06/13 08:01:51;;;;;;;6.03;2.20;;;;;;;;;;5027867;28;20132;-73
2023/06/13 08:04:18;;;;;;;4.53;2.40;;;;;;;;;;5020257;28;20032;-73
2023/06/13 08:06:44;;;;;;;8.10;3.28;;;;;;;;;;5029420;28;20053;-73
2023/06/13 08:09:11;;;;;;;5.28;2.03;;;;;;;;;;5036138;28;20653;-74
2023/06/13 08:11:37;;;;;;;5.03;2.15;;;;;;;;;;5027333;28;20033;-73
2023/06/13 08:14:03;;;;;;;6.65;2.17;;;;;;;;;;5024304;28;20022;-74
2023/06/13 08:16:30;;;;;;;5.88;2.60;;;;;;;;;;5019359;28;20038;-73
2023/06/13 08:18:56;;;;;;;1.95;1.70;;;;;;;;;;5024364;28;20029;-74
2023/06/13 08:21:22;;;;;;;4.55;2.10;;;;;;;;;;5024444;28;20049;-74
2023/06/13 08:23:48;;;;;;;5.32;2.28;;;;;;;;;;5024579;28;20041;-74
2023/06/13 08:26:15;;;;;;;8.50;1.95;;;;;;;;;;5029763;28;20045;-75
2023/06/13 08:28:43;;;;;;;3.25;1.90;;;;;;;;;;5029230;28;20078;-74
2023/06/13 08:31:09;;;;;;;3.95;1.90;;;;;;;;;;5024457;28;20111;-73
2023/06/13 08:33:36;;;;;;;3.92;2.20;;;;;;;;;;5021151;28;20121;-74
2023/06/13 08:36:02;;;;;;;4.40;2.00;;;;;;;;;;5019696;28;20136;-74
2023/06/13 08:38:28;;;;;;;4.97;2.22;;;;;;;;;;5021679;28;20026;-75
2023/06/13 08:40:55;;;;;;;6.57;2.15;;;;;;;;;;5024617;28;20038;-73
2023/06/13 08:43:21;;;;;;;4.15;1.77;;;;;;;;;;5028126;28;20545;-74
2023/06/13 08:45:47;;;;;;;12.48;3.75;;;;;;;;;;5026447;28;20025;-71
2023/06/13 08:48:14;;;;;;;25.13;19.38;;;;;;;;;;5029624;28;20109;-70
2023/06/13 08:50:40;;;;;;;4.07;2.45;;;;;;;;;;5027668;28;20026;-70
2023/06/13 08:53:07;;;;;;;4.65;2.30;;;;;;;;;;5028739;28;20018;-71
2023/06/13 08:55:37;;;;;;;2.40;1.90;;;;;;;;;;5024733;28;20112;-73
2023/06/13 08:58:04;;;;;;;2.40;1.98;;;;;;;;;;5027654;28;20175;-78
2023/06/13 09:00:35;;;;;;;7.72;2.08;;;;;;;;;;5036978;28;20108;-79
2023/06/13 09:03:01;;;;;;;;;;;;;;;;;;5030894;28;20046;-83
2023/06/13 09:05:27;;;;;;;5.85;2.08;;;;;;;;;;5027339;28;19912;-83
2023/06/13 09:07:55;;;;;;;6.95;2.28;;;;;;;;;;5035486;28;20042;-84
2023/06/13 09:10:21;;;;;;;4.07;2.00;;;;;;;;;;5034644;28;20053;-81
2023/06/13 09:12:51;;;;;;;4.22;1.98;;;;;;;;;;5028562;28;20026;-82
2023/06/13 09:15:17;;;;;;;3.05;1.90;;;;;;;;;;5034379;28;20026;-80
2023/06/13 09:17:45;;;;;;;4.88;2.10;;;;;;;;;;5037639;28;20076;-77
2023/06/13 09:20:11;;;;;;;5.40;2.15;;;;;;;;;;5035194;28;20133;-80
2023/06/13 09:22:37;;;;;;;2.38;2.17;;;;;;;;;;5044043;28;20045;-74
2023/06/13 09:25:04;;;;;;;5.65;2.40;;;;;;;;;;5029221;28;20044;-78
2023/06/13 09:27:30;;;;;;;10.00;4.15;;;;;;;;;;5027055;28;20245;-82
2023/06/13 09:30:03;;;;;;;3.85;2.72;;;;;;;;;;5032251;28;20038;-83
2023/06/13 09:32:29;;;;;;;3.60;2.00;;;;;;;;;;5036065;28;20049;-82
2023/06/13 09:34:55;;;;;;;6.97;2.15;;;;;;;;;;5033523;28;20090;-78
2023/06/13 09:37:21;;;;;;;5.47;2.22;;;;;;;;;;5025297;28;20037;-80
2023/06/13 09:39:48;;;;;;;5.70;2.33;;;;;;;;;;5025892;28;20022;-82
2023/06/13 09:42:14;;;;;;;2.25;1.88;;;;;;;;;;5026781;28;20077;-78
2023/06/13 09:44:40;;;;;;;2.25;2.05;;;;;;;;;;5032422;28;20554;-82
2023/06/13 09:47:06;;;;;;;3.08;2.05;;;;;;;;;;5032344;28;20068;-82
2023/06/13 09:49:34;;;;;;;4.03;2.15;;;;;;;;;;5032153;28;20065;-84
2023/06/13 09:52:00;;;;;;;5.90;2.10;;;;;;;;;;5030566;28;20029;-82
2023/06/13 09:54:31;;;;;;;5.03;2.25;;;;;;;;;;5030041;28;20103;-83
2023/06/13 09:56:57;;;;;;;2.40;2.10;;;;;;;;;;5010616;28;20029;-82
2023/06/13 09:59:23;;;;;;;2.63;2.42;;;;;;;;;;5027939;28;20029;-82
2023/06/13 10:01:49;;;;;;;7.28;2.17;;;;;;;;;;5019992;28;20064;-85
2023/06/13 10:04:16;;;;;;;4.97;1.98;;;;;;;;;;5027024;28;20029;-84
2023/06/13 10:06:42;;;;;;;8.07;2.35;;;;;;;;;;5027615;28;20061;-84
2023/06/13 10:09:11;;;;;;;3.67;2.03;;;;;;;;;;5023427;28;20029;-81
2023/06/13 10:11:39;;;;;;;2.20;1.90;;;;;;;;;;5024169;28;20033;-85
2023/06/13 10:14:10;;;;;;;6.20;2.50;;;;;;;;;;5026486;28;20443;-78
2023/06/13 10:16:36;;;;;;;;;;;;;;;;;;5028843;28;20087;-83
2023/06/13 10:19:05;;;;;;;5.43;2.45;;;;;;;;;;5029001;28;19944;-82
2023/06/13 10:21:32;;;;;;;7.22;2.90;;;;;;;;;;5029037;28;20069;-80
2023/06/13 10:23:58;;;;;;;3.22;2.15;;;;;;;;;;5031570;28;20044;-80
2023/06/13 10:26:45;;;;;;;3.83;2.08;;;;;;;;;;5032222;28;20112;-80
2023/06/13 10:29:23;;;;;;;2.95;2.35;;;;;;;;;;5028318;28;20219;-80
2023/06/13 10:32:02;;;;;;;4.45;2.15;;;;;;;;;;5030883;28;20099;-80
2023/06/13 10:34:48;;;;;;;7.93;2.55;;;;;;;;;;5028598;28;20127;-84
2023/06/13 10:37:48;;;;;;;4.38;2.40;;;32.30;99.90;;;;;;5000465;28;20081;-82
2023/06/13 10:40:20;;;;;;;2.80;2.00;;;;;;;;;;5025199;28;20027;-81
2023/06/13 10:43:12;;;;;;;6.68;2.45;;;;;;;;;;5028555;28;20052;-82
2023/06/13 10:45:40;;;;;;;4.25;2.00;;;;;;;;;;5029119;28;20705;-83
2023/06/13 10:48:07;;;;;;;3.47;2.10;;;;;;;;;;5025996;28;20140;-81
2023/06/13 10:50:40;;;;;;;4.82;2.30;;;;;;;;;;5027427;28;20083;-81
2023/06/13 10:53:09;;;;;;;5.55;2.13;;;;;;;;;;5028992;28;20034;-83
2023/06/13 10:55:37;;;;;;;7.15;2.35;;;;;;;;;;5027953;28;20036;-83
2023/06/13 10:58:10;;;;;;;4.65;2.30;;;;;;;;;;5026682;28;20163;-82
2023/06/13 11:00:38;;;;;;;5.40;1.85;;;;;;;;;;5025415;28;20116;-84
2023/06/13 11:03:11;;;;;;;6.57;2.72;;;;;;;;;;5030344;28;20040;-81
2023/06/13 11:05:47;;;;;;;4.53;2.30;;;;;;;;;;5024339;28;20041;-81
2023/06/13 11:08:18;;;;;;;4.38;2.50;;;;;;;;;;5022802;28;20115;-81
2023/06/13 11:10:44;;;;;;;;;;;;;;;;;;5026091;28;20029;-82
2023/06/13 11:13:24;;;;;;;4.25;2.10;;;;;;;;;;5023956;28;19920;-80
2023/06/13 11:15:53;;;;;;;2.58;1.80;;;;;;;;;;5024435;28;20667;-75
2023/06/13 11:18:20;;;;;;;4.47;2.30;;;;;;;;;;5026939;28;20509;-81
2023/06/13 11:20:59;;;;;;;5.45;2.50;;;;;;;;;;5031029;28;20102;-80
2023/06/13 11:23:35;;;;;;;2.78;2.22;;;;;;;;;;5029822;28;20022;-80
2023/06/13 11:26:01;;;;;;;2.63;1.95;;;;;;;;;;5030165;28;20017;-81
2023/06/13 11:28:27;;;;;;;4.32;2.40;;;;;;;;;;5028692;28;20018;-81
2023/06/13 11:30:53;;;;;;;3.42;2.20;;;;;;;;;;5029806;28;20032;-79
2023/06/13 11:33:19;;;;;;;4.18;2.13;;;;;;;;;;5033105;28;20029;-80
2023/06/13 11:35:49;;;;;;;2.75;1.92;;;;;;;;;;5032246;28;20095;-80
2023/06/13 11:38:19;;;;;;;5.60;2.28;;;;;;;;;;5030363;28;20124;-80
2023/06/13 11:40:46;;;;;;;3.38;1.90;;;;;;;;;;5028288;28;20156;-81
2023/06/13 11:43:16;;;;;;;4.45;1.80;;;;;;;;;;5030874;28;20040;-81
2023/06/13 11:45:42;;;;;;;19.40;2.83;;;;;;;;;;5030169;28;20037;-80
2023/06/13 11:48:11;;;;;;;7.38;1.90;;;;;;;;;;5027189;28;20724;-82
2023/06/13 11:50:37;;;;;;;5.97;2.20;;;;;;;;;;5029839;28;20489;-82
2023/06/13 11:53:07;;;;;;;10.60;2.70;;;;;;;;;;5045882;28;20013;-79
2023/06/13 11:55:34;;;;;;;5.63;2.00;;;;;;;;;;5032169;28;20112;-81
2023/06/13 11:58:00;;;;;;;2.75;2.08;;;;;;;;;;5031255;28;20025;-81
2023/06/13 12:00:27;;;;;;;7.03;2.28;;;;;;;;;;5029627;28;20361;-81
2023/06/13 12:02:54;;;;;;;5.53;2.55;;;;;;;;;;5029792;28;20124;-82
2023/06/13 12:05:20;;;;;;;8.88;2.28;;;;;;;;;;5009991;28;20367;-81
2023/06/13 12:07:46;;;;;;;6.00;2.22;;;;;;;;;;5014050;28;20495;-81
2023/06/13 12:10:13;;;;;;;11.02;2.00;;;;;;;;;;5010889;28;20410;-80
2023/06/13 12:12:39;;;;;;;5.88;2.47;;;;;;;;;;5027321;28;20037;-82
2023/06/13 12:15:07;;;;;;;4.03;1.92;;;;;;;;;;5027001;28;20099;-81
2023/06/13 12:17:33;;;;;;;7.20;2.33;;;;;;;;;;5028596;28;20076;-77
2023/06/13 12:20:07;;;;;;;10.07;2.08;;;;;;;;;;5028348;28;20032;-79
2023/06/13 12:22:33;;;;;;;6.55;1.67;;;;;;;;;;5029117;28;20041;-80
2023/06/13 12:24:59;;;;;;;3.75;1.95;;;;;;;;;;5029222;28;20116;-80
2023/06/13 12:27:26;;;;;;;8.02;1.80;;;;;;;;;;5022317;28;20034;-80
2023/06/13 12:29:52;;;;;;;3.03;1.90;;;;;;;;;;5027871;28;20091;-80
2023/06/13 12:32:18;;;;;;;5.82;2.20;;;;;;;;;;5029755;28;20490;-81
2023/06/13 12:34:45;;;;;;;3.38;1.40;;;;;;;;;;5030401;28;20032;-81
2023/06/13 12:37:12;;;;;;;8.93;2.17;;;;;;;;;;5023689;28;20032;-82
2023/06/13 12:39:58;;;;;;;6.93;2.05;;;;;;;;;;5030100;28;20407;-81
2023/06/13 12:42:24;;;;;;;5.93;1.77;;;;;;;;;;5014970;28;20030;-81
2023/06/13 12:44:50;;;;;;;8.70;1.92;;;;;;;;;;5021547;28;20033;-81
2023/06/13 12:47:20;;;;;;;4.70;2.33;;;;;;;;;;5024316;28;20092;-82
2023/06/13 12:49:46;;;;;;;2.97;1.83;;;;;;;;;;5025928;28;20120;-81
2023/06/13 12:52:15;;;;;;;6.32;2.72;;;;;;;;;;5018816;28;20120;-73
2023/06/13 12:54:41;;;;;;;6.65;2.25;;;;;;;;;;5029953;28;20083;-71
2023/06/13 12:57:10;;;;;;;8.45;2.05;;;;;;;;;;5033923;28;20119;-73
2023/06/13 12:59:39;;;;;;;4.32;1.80;;;;;;;;;;5022795;28;20382;-74
2023/06/13 13:02:07;;;;;;;4.00;1.98;;;;;;;;;;5027195;28;20150;-71
2023/06/13 13:04:34;;;;;;;24.35;20.45;;;;;;;;;;5023142;28;20485;-71
2023/06/13 13:07:01;;;;;;;5.28;1.60;;;;;;;;;;5024354;28;20017;-70
2023/06/13 13:09:27;;;;;;;7.45;1.88;;;;;;;;;;5024365;28;20025;-71
2023/06/13 13:11:55;;;;;;;3.90;1.65;;;;;;;;;;5026281;28;20474;-73
2023/06/13 13:14:28;;;;;;;10.52;2.47;;;;;;;;;;5025873;28;20044;-71
2023/06/13 13:16:54;;;;;;;3.80;1.70;;;;;;;;;;5024550;28;20514;-76
2023/06/13 13:19:21;;;;;;;4.68;2.22;;;;;;;;;;5019942;28;20514;-79
2023/06/13 13:21:47;;;;;;;8.48;1.63;;;;;;;;;;5024049;28;20633;-79
2023/06/13 13:24:13;;;;;;;3.45;1.40;;;;;;;;;;5023080;28;20136;-82
2023/06/13 13:26:40;;;;;;;8.50;1.48;;;;;;;;;;5024347;28;20070;-79
2023/06/13 13:29:06;;;;;;;6.40;2.10;;;;;;;;;;5030157;28;20029;-80
2023/06/13 13:31:33;;;;;;;4.35;2.47;;;;;;;;;;5028622;28;20042;-80
2023/06/13 13:33:59;;;;;;;6.72;2.15;;;;;;;;;;5022073;28;20204;-81
2023/06/13 13:36:25;;;;;;;9.18;1.98;;;;;;;;;;5021635;28;20033;-80
2023/06/13 13:38:53;;;;;;;10.15;4.30;;;;;;;;;;5017331;28;20033;-81
2023/06/13 13:41:19;;;;;;;4.93;2.00;;;;;;;;;;5026252;28;20432;-79
2023/06/13 13:43:45;;;;;;;8.02;1.77;;;;;;;;;;5025589;28;20048;-79
2023/06/13 13:46:11;;;;;;;2.95;1.80;;;;;;;;;;5004020;28;20046;-81
2023/06/13 13:48:38;;;;;;;3.30;2.00;;;;;;;;;;5021214;28;20140;-81
2023/06/13 13:51:05;;;;;;;9.15;1.70;;;;;;;;;;5024634;28;20095;-79
2023/06/13 13:53:31;;;;;;;6.97;1.67;;;;;;;;;;5025749;28;20033;-82
2023/06/13 13:55:57;;;;;;;5.70;1.90;;;;;;;;;;5024446;28;20128;-81
2023/06/13 13:58:23;;;;;;;5.70;1.63;;;;;;;;;;5024141;28;20112;-78
2023/06/13 14:00:49;;;;;;;5.13;1.45;;;;;;;;;;5025206;28;20099;-82
2023/06/13 14:03:15;;;;;;;7.20;1.83;;;;;;;;;;5025036;28;20079;-83
2023/06/13 14:05:41;;;;;;;4.97;1.67;;;;;;;;;;5021848;28;20038;-77
2023/06/13 14:08:08;;;;;;;2.08;1.60;;;;;;;;;;5025382;28;20478;-80
2023/06/13 14:10:34;;;;;;;8.20;1.85;;;;;;;;;;5024215;28;20029;-80
2023/06/13 14:13:00;;;;;;;6.75;1.58;;;;;;;;;;5023397;28;20072;-81
2023/06/13 14:15:26;;;;;;;5.57;1.92;;;;;;;;;;5024757;28;20919;-78
2023/06/13 14:17:52;;;;;;;8.10;1.92;;;;;;;;;;5026032;28;20147;-78
2023/06/13 14:20:19;;;;;;;9.50;2.05;;;;;;;;;;5039581;28;20057;-80
2023/06/13 14:22:45;;;;;;;3.65;1.67;;;;;;;;;;5025813;28;20037;-80
2023/06/13 14:25:12;;;;;;;6.03;1.48;;;;;;;;;;5023720;28;20398;-79
2023/06/13 14:27:38;;;;;;;5.68;1.55;;;;;;;;;;5025726;28;20030;-79
2023/06/13 14:30:05;;;;;;;5.35;1.67;;;;;;;;;;5023364;28;20034;-83
2023/06/13 14:32:31;;;;;;;8.68;2.00;;;;;;;;;;5025621;28;20037;-80
2023/06/13 14:34:57;;;;;;;7.47;1.83;;;;;;;;;;5023043;28;20053;-81
2023/06/13 14:37:24;;;;;;;5.72;2.75;;;;;;;;;;5021179;28;20038;-79
2023/06/13 14:39:50;;;;;;;15.43;2.22;;;;;;;;;;5021288;28;20116;-79
2023/06/13 14:42:16;;;;;;;6.88;2.17;;;;;;;;;;5019822;28;20491;-81
2023/06/13 14:44:45;;;;;;;7.80;2.05;;;;;;;;;;5028884;28;20037;-80
2023/06/13 14:47:14;;;;;;;5.80;1.80;;;;;;;;;;5028370;28;20498;-80
2023/06/13 14:49:40;;;;;;;7.70;2.42;;;;;;;;;;5017762;28;20095;-83
2023/06/13 14:52:06;;;;;;;5.93;1.83;;;;;;;;;;5027237;28;20033;-83
2023/06/13 14:54:32;;;;;;;4.38;1.67;;;;;;;;;;5027031;28;20033;-83
2023/06/13 14:56:58;;;;;;;7.00;2.15;;;;;;;;;;5024229;28;20025;-83
2023/06/13 14:59:24;;;;;;;8.55;1.90;;;;;;;;;;5031059;28;20382;-82
2023/06/13 15:01:52;;;;;;;4.60;1.98;;;;;;;;;;5030057;28;20042;-81
2023/06/13 15:04:18;;;;;;;7.30;1.73;;;;;;;;;;5030546;28;20029;-83
2023/06/13 15:06:44;;;;;;;7.00;1.90;;;;;;;;;;5032179;28;20040;-83
2023/06/13 15:09:12;;;;;;;5.18;1.70;;;;;;;;;;5025949;28;20034;-82
2023/06/13 15:11:38;;;;;;;2.40;1.63;;;;;;;;;;5029010;28;20037;-83
2023/06/13 15:14:07;;;;;;;7.72;1.75;;;;;;;;;;5029670;28;20026;-81
2023/06/13 15:16:33;;;;;;;5.20;2.03;;;;;;;;;;5031407;28;20041;-82
2023/06/13 15:18:59;;;;;;;8.45;2.13;;;;;;;;;;5031734;28;20036;-81
2023/06/13 15:21:26;;;;;;;5.82;2.28;;;;;;;;;;5030805;28;20379;-81
2023/06/13 15:23:53;;;;;;;5.75;2.17;;;;;;;;;;5030473;28;20769;-80
2023/06/13 15:26:19;;;;;;;7.47;2.13;;;;;;;;;;5030579;28;20108;-82
2023/06/13 15:28:49;;;;;;;2.00;1.60;;;;;;;;;;5039087;28;20069;-81
2023/06/13 15:31:15;;;;;;;12.95;2.03;;;;;;;;;;5020450;28;20041;-82
2023/06/13 15:33:43;;;;;;;3.88;1.92;;;;;;;;;;5031006;28;20104;-81
2023/06/13 15:36:10;;;;;;;6.70;1.63;;;;;;;;;;5031117;28;20025;-84
2023/06/13 15:38:36;;;;;;;7.13;1.88;;;;;;;;;;5029982;28;20040;-82
2023/06/13 15:41:03;;;;;;;4.07;1.42;;;;;;;;;;5027474;28;20369;-82
2023/06/13 15:43:29;;;;;;;1.83;1.42;;;;;;;;;;5024709;28;20084;-83
2023/06/13 15:45:55;;;;;;;11.75;2.67;;;;;;;;;;5029902;28;20064;-82
2023/06/13 15:48:21;;;;;;;6.07;1.83;;;;;;;;;;5046300;28;20036;-82
2023/06/13 15:50:48;;;;;;;2.78;1.75;;;;;;;;;;5028191;28;20075;-82
2023/06/13 15:53:15;;;;;;;8.40;2.25;;;;;;;;;;5017195;28;20463;-81
2023/06/13 15:55:41;;;;;;;6.97;1.60;;;;;;;;;;5019583;28;20064;-78
2023/06/13 15:58:13;;;;;;;3.47;1.80;;;;;;;;;;5025270;28;21558;-81
2023/06/13 16:00:40;;;;;;;5.47;2.17;;;;;;;;;;5023248;28;20038;-79
2023/06/13 16:03:09;;;;;;;10.43;2.28;;;;;;;;;;5024958;28;20033;-84
2023/06/13 16:05:36;;;;;;;3.30;1.40;;;;;;;;;;5021670;28;20037;-81
2023/06/13 16:08:03;;;;;;;5.95;1.73;;;;;;;;;;5024755;28;20522;-83
2023/06/13 16:10:29;;;;;;;4.18;1.70;;;;;;;;;;5019369;28;20083;-82
2023/06/13 16:12:55;;;;;;;3.08;1.60;;;;;;;;;;5025832;28;20044;-81
2023/06/13 16:15:21;;;;;;;6.03;1.60;;;;;;;;;;5031264;28;20029;-82
2023/06/13 16:17:47;;;;;;;7.68;2.35;;;;;;;;;;5031733;28;20467;-80
2023/06/13 16:20:13;;;;;;;4.13;2.03;;;;;;;;;;5028803;28;20542;-81
2023/06/13 16:22:40;;;;;;;5.50;1.52;;;;;;;;;;5023340;28;20124;-80
2023/06/13 16:25:06;;;;;;;3.13;1.90;;;;;;;;;;5030356;28;20025;-82
2023/06/13 16:27:32;;;;;;;6.90;1.63;;;;;;;;;;5023886;28;20029;-81
2023/06/13 16:29:58;;;;;;;6.97;1.77;;;;;;;;;;5028359;28;20060;-81
2023/06/13 16:32:24;;;;;;;3.70;1.67;;;;;;;;;;5027562;28;20025;-82
2023/06/13 16:34:51;;;;;;;4.00;1.30;;;;;;;;;;5022041;28;20041;-81
2023/06/13 16:37:17;;;;;;;3.60;1.80;;;;;;;;;;5026546;28;20164;-83
2023/06/13 16:39:43;;;;;;;4.72;1.80;;;;;;;;;;5014015;28;20086;-81
2023/06/13 16:42:09;;;;;;;6.38;1.90;;;;;;;;;;5029795;28;20118;-82
2023/06/13 16:44:35;;;;;;;4.97;1.90;;;;;;;;;;5020893;28;20646;-79
2023/06/13 16:47:03;;;;;;;4.00;2.00;;;;;;;;;;5023796;28;20032;-82
2023/06/13 16:49:30;;;;;;;4.38;1.95;;;;;;;;;;5023370;28;20030;-79
2023/06/13 16:51:56;;;;;;;3.50;2.13;;;;;;;;;;5021870;28;20060;-81
2023/06/13 16:54:22;;;;;;;4.03;2.42;;;;;;;;;;5021911;28;20057;-80
2023/06/13 16:56:48;;;;;;;6.13;2.25;;;;;;;;;;5022876;28;20034;-82
2023/06/13 16:59:14;;;;;;;2.58;1.60;;;;;;;;;;5020241;28;20037;-81
2023/06/13 17:01:40;;;;;;;4.78;1.90;;;;;;;;;;5023034;28;20462;-80
2023/06/13 17:04:06;;;;;;;7.57;2.53;;;;;;;;;;5032894;28;20496;-81
2023/06/13 17:06:32;;;;;;;6.60;2.25;;;;;;;;;;5019451;28;20545;-81
2023/06/13 17:08:58;;;;;;;6.53;1.80;;;;;;;;;;5036727;28;20048;-81
2023/06/13 17:11:24;;;;;;;6.88;1.98;;;;;;;;;;5018140;28;20026;-84
2023/06/13 17:13:50;;;;;;;6.78;1.95;;;;;;;;;;5021438;28;20059;-77
2023/06/13 17:16:16;;;;;;;7.00;2.10;;;;;;;;;;5022810;28;20054;-80
2023/06/13 17:18:42;;;;;;;2.53;1.73;;;;;;;;;;5027742;28;20040;-79
2023/06/13 17:21:09;;;;;;;4.50;1.92;;;;;;;;;;5024145;28;20498;-80
2023/06/13 17:23:35;;;;;;;7.63;3.40;;;;;;;;;;5024356;28;20479;-80
2023/06/13 17:26:01;;;;;;;4.50;1.73;;;;;;;;;;5025109;28;20045;-77
2023/06/13 17:28:27;;;;;;;1.80;1.48;;;;;;;;;;5023513;28;20076;-82
2023/06/13 17:30:53;;;;;;;9.95;2.47;;;;;;;;;;5022331;28;20446;-83
2023/06/13 17:33:20;;;;;;;6.78;1.73;;;;;;;;;;5025842;28;20116;-82
2023/06/13 17:35:46;;;;;;;5.72;2.03;;;;;;;;;;5025002;28;20036;-82
2023/06/13 17:38:12;;;;;;;6.90;1.90;;;;;;;;;;5023753;28;20033;-84
2023/06/13 17:40:38;;;;;;;7.47;2.15;;;;;;;;;;5006534;28;20128;-82
2023/06/13 17:43:04;;;;;;;5.65;1.92;;;;;;;;;;5025572;28;20128;-84
2023/06/13 17:45:30;;;;;;;2.88;2.00;;;;;;;;;;5023618;28;20308;-80
2023/06/13 17:47:56;;;;;;;6.68;1.92;;;;;;;;;;5024985;28;20033;-82
2023/06/13 17:50:23;;;;;;;5.80;1.77;;;;;;;;;;5026141;28;20037;-81
2023/06/13 17:52:49;;;;;;;6.18;1.90;;;;;;;;;;5026779;28;20112;-83
2023/06/13 17:55:16;;;;;;;4.78;2.63;;;;;;;;;;5026035;28;20445;-82
2023/06/13 17:57:43;;;;;;;3.13;1.80;;;;;;;;;;5025803;28;20138;-83